Mackinac Island, MI

11:01 PM EST on February 11, 2016 (GMT -0500)
Mackinac Island

Weather History for KMCD - November, 2012

Change the Weather History Date:

Friday, November 9, 2012

  Actual Average Record
Temperature  
Mean Temperature 43 °F -  
Max Temperature 45 °F 41 °F 62 °F (1999)
Min Temperature 41 °F 32 °F 20 °F (1980)
Degree Days  
Heating Degree Days 22    
Moisture  
Dew Point 38 °F    
Average Humidity 79    
Maximum Humidity 84    
Minimum Humidity 74    
Precipitation  
Precipitation 0.00 in - - ()
Sea Level Pressure  
Sea Level Pressure 30.09 in    
Wind  
Wind Speed 8 mph (NW)    
Max Wind Speed 14 mph    
Max Gust Speed 22 mph    
Visibility 10 miles    
Events      
Averages and records for this station are not official NWS values.
T = Trace of Precipitation, MM = Missing Value Source: NWS Daily Summary

Daily Weather History Graph

Daily Weather History Graph

Search for Another Location

Airport or City:

Trip Planner

Search our weather history database for the weather conditions in past years. The results will help you decide how hot, cold, wet, or windy it might be!

Date:

Astronomy

Nov. 09, 2012 Rise Set
Actual Time 7:30 AM EST 5:13 PM EST
Civil Twilight 6:58 AM EST 5:45 PM EST
Nautical Twilight 6:23 AM EST 6:21 PM EST
Astronomical Twilight 5:48 AM EST 6:55 PM EST
Moon 2:14 AM EST (11/9) 2:38 PM EST (11/9)
Length of Visible Light 10h 46m
Length of Day
9h 42m
Waning Crescent, 23% of the Moon is Illuminated
Nov 9
Waning Crescent
Nov 13
New
Nov 20
First Quarter
Nov 28
Full
Dec 6
Last Quarter

Hourly Weather History & Observations

Time (EST) Temp. Windchill Dew Point Humidity Pressure Visibility Wind Dir Wind Speed Gust Speed Precip Events Conditions
12:13 AM 44.6 °F 38.4 °F 38.5 °F 79% 30.02 in 10.0 mi WSW 12.7 mph 21.9 mph N/A   Mostly Cloudy
12:33 AM 44.6 °F 38.4 °F 38.5 °F 79% 30.02 in 10.0 mi West 12.7 mph 19.6 mph N/A   Mostly Cloudy
12:53 AM 44.6 °F 38.1 °F 37.6 °F 76% 30.02 in 10.0 mi West 13.8 mph 20.7 mph N/A   Overcast
1:13 AM 44.6 °F 40.7 °F 37.9 °F 77% 30.03 in 10.0 mi WSW 6.9 mph 18.4 mph N/A   Mostly Cloudy
1:33 AM 44.6 °F 40.2 °F 38.3 °F 79% 30.03 in 10.0 mi WSW 8.1 mph - N/A   Mostly Cloudy
1:53 AM 44.8 °F 38.7 °F 38.3 °F 78% 30.03 in 10.0 mi West 12.7 mph 17.3 mph N/A   Overcast
2:13 AM 44.8 °F 39.0 °F 38.7 °F 79% 30.03 in 10.0 mi West 11.5 mph 16.1 mph N/A   Overcast
2:33 AM 45.0 °F 40.6 °F 38.8 °F 79% 30.03 in 7.0 mi WSW 8.1 mph 16.1 mph N/A   Overcast
2:53 AM 45.0 °F 38.5 °F 39.2 °F 80% 30.04 in 7.0 mi West 13.8 mph - N/A   Overcast
3:13 AM 45.0 °F 40.1 °F 39.2 °F 80% 30.04 in 7.0 mi West 9.2 mph - N/A   Overcast
3:33 AM 45.0 °F 40.1 °F 39.2 °F 80% 30.04 in 7.0 mi West 9.2 mph 17.3 mph N/A   Overcast
3:53 AM 44.8 °F 40.4 °F 39.6 °F 82% 30.04 in 7.0 mi West 8.1 mph - N/A   Overcast
4:13 AM 44.6 °F 39.7 °F 39.4 °F 82% 30.05 in 7.0 mi West 9.2 mph - N/A   Overcast
4:33 AM 44.1 °F 40.1 °F 39.4 °F 84% 30.05 in 7.0 mi West 6.9 mph - N/A   Overcast
4:53 AM 43.9 °F 39.9 °F 38.7 °F 82% 30.06 in 7.0 mi West 6.9 mph - N/A   Overcast
5:13 AM 43.7 °F 40.3 °F 38.3 °F 81% 30.06 in 7.0 mi West 5.8 mph - N/A   Overcast
5:33 AM 43.7 °F 40.3 °F 37.9 °F 80% 30.06 in 7.0 mi West 5.8 mph - N/A   Overcast
5:53 AM 43.2 °F 39.7 °F 37.6 °F 81% 30.06 in 7.0 mi WNW 5.8 mph - N/A   Overcast
6:13 AM 43.0 °F 39.5 °F 37.4 °F 81% 30.06 in 7.0 mi WNW 5.8 mph - N/A   Overcast
6:33 AM 42.8 °F 39.3 °F 37.2 °F 81% 30.07 in 10.0 mi WNW 5.8 mph - N/A   Overcast
6:53 AM 42.8 °F 38.6 °F 37.0 °F 80% 30.07 in 10.0 mi West 6.9 mph - N/A   Overcast
7:13 AM 42.8 °F 39.3 °F 36.9 °F 80% 30.08 in 10.0 mi WNW 5.8 mph - N/A   Overcast
7:33 AM 42.3 °F 37.9 °F 36.5 °F 80% 30.08 in 10.0 mi WNW 6.9 mph - N/A   Overcast
7:53 AM 42.4 °F 39.6 °F 36.5 °F 79% 30.09 in 10.0 mi WNW 4.6 mph - N/A   Overcast
8:13 AM 42.8 °F 41.1 °F 36.7 °F 79% 30.09 in 10.0 mi WNW 3.5 mph - N/A   Overcast
8:33 AM 42.8 °F 41.1 °F 36.7 °F 79% 30.09 in 10.0 mi NW 3.5 mph - N/A   Overcast
8:53 AM 42.8 °F 41.1 °F 36.9 °F 80% 30.10 in 10.0 mi West 3.5 mph - N/A   Overcast
9:13 AM 43.0 °F 41.3 °F 37.4 °F 81% 30.09 in 10.0 mi West 3.5 mph - N/A   Overcast
9:33 AM 43.2 °F 41.5 °F 37.6 °F 81% 30.09 in 10.0 mi West 3.5 mph - N/A   Overcast
9:53 AM 43.3 °F 41.7 °F 37.4 °F 80% 30.10 in 10.0 mi West 3.5 mph - N/A   Overcast
10:13 AM 43.2 °F 40.5 °F 37.6 °F 81% 30.10 in 10.0 mi West 4.6 mph - N/A   Overcast
10:33 AM 43.7 °F - 37.2 °F 78% 30.11 in 10.0 mi Calm Calm - N/A   Overcast
10:53 AM 43.7 °F 42.1 °F 37.4 °F 78% 30.11 in 10.0 mi West 3.5 mph - N/A   Overcast
11:13 AM 44.1 °F 42.5 °F 37.8 °F 78% 30.11 in 10.0 mi West 3.5 mph - N/A   Overcast
11:33 AM 44.6 °F - 37.8 °F 77% 30.11 in 10.0 mi Calm Calm - N/A   Overcast
11:54 AM 45.5 °F 44.2 °F 38.3 °F 76% 30.11 in 10.0 mi West 3.5 mph - N/A   Overcast
12:13 PM 45.1 °F 43.7 °F 37.6 °F 75% 30.11 in 10.0 mi WNW 3.5 mph - N/A   Overcast
12:33 PM 45.5 °F 43.2 °F 37.9 °F 75% 30.10 in 10.0 mi WNW 4.6 mph - N/A   Overcast
12:53 PM 45.3 °F 44.0 °F 38.1 °F 76% 30.09 in 10.0 mi NW 3.5 mph - N/A   Overcast
1:13 PM 45.1 °F 42.8 °F 37.9 °F 76% 30.10 in 10.0 mi NNW 4.6 mph - N/A   Overcast
1:54 PM 45.5 °F - 37.6 °F 74% 30.09 in 10.0 mi Calm Calm - N/A   Overcast
2:13 PM 45.5 °F 44.2 °F 37.6 °F 74% 30.09 in 10.0 mi NNW 3.5 mph - N/A   Overcast
2:33 PM 45.1 °F - 37.6 °F 75% 30.09 in 10.0 mi Calm Calm - N/A   Overcast
2:54 PM 45.1 °F - 37.6 °F 75% 30.09 in 10.0 mi Calm Calm - N/A   Overcast
3:13 PM 45.0 °F - 37.4 °F 75% 30.09 in 10.0 mi Calm Calm - N/A   Overcast
3:33 PM 45.5 °F - 37.6 °F 74% 30.09 in 10.0 mi Calm Calm - N/A   Overcast
3:54 PM 45.5 °F 43.2 °F 37.6 °F 74% 30.09 in 10.0 mi North 4.6 mph - N/A   Overcast
4:13 PM 45.0 °F - 37.4 °F 75% 30.09 in 10.0 mi Calm Calm - N/A   Overcast
4:33 PM 44.6 °F - 37.6 °F 76% 30.09 in 10.0 mi Calm Calm - N/A   Overcast
4:54 PM 44.1 °F 40.8 °F 38.3 °F 80% 30.10 in 10.0 mi North 5.8 mph - N/A   Overcast
5:13 PM 43.9 °F 41.3 °F 37.9 °F 80% 30.10 in 10.0 mi North 4.6 mph - N/A   Overcast
5:33 PM 44.1 °F 39.5 °F 37.6 °F 78% 30.10 in 10.0 mi North 8.1 mph - N/A   Overcast
5:53 PM 44.1 °F 39.5 °F 37.0 °F 76% 30.11 in 10.0 mi North 8.1 mph - N/A   Overcast
6:13 PM 44.1 °F 40.8 °F 37.0 °F 76% 30.11 in 10.0 mi North 5.8 mph - N/A   Overcast
6:33 PM 43.9 °F 38.8 °F 37.4 °F 78% 30.12 in 10.0 mi North 9.2 mph - N/A   Overcast
6:53 PM 43.9 °F 40.5 °F 37.4 °F 78% 30.13 in 10.0 mi North 5.8 mph - N/A   Overcast
7:13 PM 43.7 °F 38.1 °F 37.4 °F 78% 30.14 in 10.0 mi North 10.4 mph - N/A   Overcast
7:33 PM 43.5 °F 37.9 °F 37.8 °F 80% 30.14 in 10.0 mi North 10.4 mph - N/A   Overcast
7:53 PM 43.2 °F 37.9 °F 37.6 °F 81% 30.14 in 10.0 mi North 9.2 mph - N/A   Overcast
8:13 PM 43.0 °F 37.2 °F 37.0 °F 80% 30.14 in 10.0 mi North 10.4 mph - N/A   Overcast
8:53 PM 42.8 °F 38.0 °F 36.9 °F 80% 30.14 in 10.0 mi NNE 8.1 mph - N/A   Overcast
9:13 PM 42.6 °F 37.8 °F 36.7 °F 79% 30.14 in 10.0 mi North 8.1 mph - N/A   Overcast
9:33 PM 42.3 °F 37.3 °F 36.7 °F 81% 30.15 in 10.0 mi NNE 8.1 mph - N/A   Overcast
9:53 PM 42.1 °F 37.1 °F 36.5 °F 81% 30.15 in 10.0 mi NNE 8.1 mph - N/A   Overcast
10:13 PM 42.1 °F 37.1 °F 36.5 °F 81% 30.15 in 10.0 mi NNE 8.1 mph - N/A   Overcast
10:33 PM 41.9 °F 36.9 °F 36.7 °F 82% 30.16 in 10.0 mi NNE 8.1 mph - N/A   Overcast
10:53 PM 42.3 °F 37.9 °F 37.4 °F 83% 30.15 in 10.0 mi NE 6.9 mph - N/A   Overcast
11:13 PM 42.3 °F 37.9 °F 37.4 °F 83% 30.15 in 10.0 mi NE 6.9 mph - N/A   Overcast
11:34 PM 42.4 °F 37.5 °F 37.6 °F 83% 30.15 in 10.0 mi ENE 8.1 mph - N/A   Overcast
11:53 PM 42.8 °F 38.0 °F 37.9 °F 83% 30.15 in 10.0 mi ENE 8.1 mph - N/A   Overcast